sensor_id;sensor_type;location;lat;lon;timestamp;pressure;altitude;pressure_sealevel;temperature;humidity
77881;BME280;67077;50.298;18.996;2023-10-13T00:00:52;98039.54;;;14.08;100.00
77881;BME280;67077;50.298;18.996;2023-10-13T00:03:39;98027.81;;;14.08;100.00
77881;BME280;67077;50.298;18.996;2023-10-13T00:06:07;98025.39;;;14.09;100.00
77881;BME280;67077;50.298;18.996;2023-10-13T00:08:36;98028.12;;;14.09;100.00
77881;BME280;67077;50.298;18.996;2023-10-13T00:11:04;98021.82;;;14.07;100.00
77881;BME280;67077;50.298;18.996;2023-10-13T00:13:32;98018.11;;;14.03;100.00
77881;BME280;67077;50.298;18.996;2023-10-13T00:16:29;98016.76;;;13.97;100.00
77881;BME280;67077;50.298;18.996;2023-10-13T00:18:58;98010.49;;;13.92;100.00
77881;BME280;67077;50.298;18.996;2023-10-13T00:21:33;98007.08;;;13.86;100.00
77881;BME280;67077;50.298;18.996;2023-10-13T00:24:01;98002.38;;;13.77;100.00
77881;BME280;67077;50.298;18.996;2023-10-13T00:26:33;98001.48;;;13.68;100.00
77881;BME280;67077;50.298;18.996;2023-10-13T00:29:03;98001.08;;;13.61;100.00
77881;BME280;67077;50.298;18.996;2023-10-13T00:31:39;98001.66;;;13.57;100.00
77881;BME280;67077;50.298;18.996;2023-10-13T00:34:11;98005.68;;;13.55;100.00
77881;BME280;67077;50.298;18.996;2023-10-13T00:36:38;98005.65;;;13.53;100.00
77881;BME280;67077;50.298;18.996;2023-10-13T00:39:16;98003.52;;;13.51;100.00
77881;BME280;67077;50.298;18.996;2023-10-13T00:41:44;98002.54;;;13.50;100.00
77881;BME280;67077;50.298;18.996;2023-10-13T00:44:19;98001.23;;;13.47;100.00
77881;BME280;67077;50.298;18.996;2023-10-13T00:47:09;97998.54;;;13.46;100.00
77881;BME280;67077;50.298;18.996;2023-10-13T00:49:37;97994.77;;;13.45;100.00
77881;BME280;67077;50.298;18.996;2023-10-13T00:52:07;97989.58;;;13.43;100.00
77881;BME280;67077;50.298;18.996;2023-10-13T00:54:37;97993.96;;;13.43;100.00
77881;BME280;67077;50.298;18.996;2023-10-13T00:57:06;97994.04;;;13.44;100.00
77881;BME280;67077;50.298;18.996;2023-10-13T00:59:55;97995.10;;;13.45;100.00
77881;BME280;67077;50.298;18.996;2023-10-13T01:02:25;97988.06;;;13.43;100.00
77881;BME280;67077;50.298;18.996;2023-10-13T01:05:06;97987.02;;;13.42;100.00
77881;BME280;67077;50.298;18.996;2023-10-13T01:07:47;97989.80;;;13.41;100.00
77881;BME280;67077;50.298;18.996;2023-10-13T01:10:22;97992.52;;;13.38;100.00
77881;BME280;67077;50.298;18.996;2023-10-13T01:13:00;97993.15;;;13.37;100.00
77881;BME280;67077;50.298;18.996;2023-10-13T01:15:30;97995.88;;;13.34;100.00
77881;BME280;67077;50.298;18.996;2023-10-13T01:18:10;97993.40;;;13.33;100.00
77881;BME280;67077;50.298;18.996;2023-10-13T01:20:41;97994.39;;;13.32;100.00
77881;BME280;67077;50.298;18.996;2023-10-13T01:23:13;97995.11;;;13.31;100.00
77881;BME280;67077;50.298;18.996;2023-10-13T01:25:47;97988.33;;;13.30;100.00
77881;BME280;67077;50.298;18.996;2023-10-13T01:28:16;97987.31;;;13.29;100.00
77881;BME280;67077;50.298;18.996;2023-10-13T01:30:44;97982.90;;;13.28;100.00
77881;BME280;67077;50.298;18.996;2023-10-13T01:33:18;97982.65;;;13.26;100.00
77881;BME280;67077;50.298;18.996;2023-10-13T01:35:56;97982.30;;;13.25;100.00
77881;BME280;67077;50.298;18.996;2023-10-13T01:38:26;97981.64;;;13.25;100.00
77881;BME280;67077;50.298;18.996;2023-10-13T01:40:55;97975.04;;;13.23;100.00
77881;BME280;67077;50.298;18.996;2023-10-13T01:43:24;97976.65;;;13.22;100.00
77881;BME280;67077;50.298;18.996;2023-10-13T01:45:52;97975.55;;;13.21;100.00
77881;BME280;67077;50.298;18.996;2023-10-13T01:48:21;97972.92;;;13.20;100.00
77881;BME280;67077;50.298;18.996;2023-10-13T01:50:49;97972.38;;;13.20;100.00
77881;BME280;67077;50.298;18.996;2023-10-13T01:53:23;97973.20;;;13.21;100.00
77881;BME280;67077;50.298;18.996;2023-10-13T01:55:51;97974.69;;;13.22;100.00
77881;BME280;67077;50.298;18.996;2023-10-13T01:58:19;97975.60;;;13.24;100.00
77881;BME280;67077;50.298;18.996;2023-10-13T02:00:53;97979.39;;;13.26;100.00
77881;BME280;67077;50.298;18.996;2023-10-13T02:03:21;97977.90;;;13.28;100.00
77881;BME280;67077;50.298;18.996;2023-10-13T02:05:49;97980.80;;;13.29;100.00
77881;BME280;67077;50.298;18.996;2023-10-13T02:08:19;97979.68;;;13.30;100.00
77881;BME280;67077;50.298;18.996;2023-10-13T02:10:53;97978.10;;;13.30;100.00
77881;BME280;67077;50.298;18.996;2023-10-13T02:13:24;97978.58;;;13.29;100.00
77881;BME280;67077;50.298;18.996;2023-10-13T02:15:55;97980.83;;;13.28;100.00
77881;BME280;67077;50.298;18.996;2023-10-13T02:18:30;97981.91;;;13.25;100.00
77881;BME280;67077;50.298;18.996;2023-10-13T02:21:11;97990.29;;;13.23;100.00
77881;BME280;67077;50.298;18.996;2023-10-13T02:23:42;97988.34;;;13.20;100.00
77881;BME280;67077;50.298;18.996;2023-10-13T02:26:13;97986.11;;;13.17;100.00
77881;BME280;67077;50.298;18.996;2023-10-13T02:28:58;97984.80;;;13.12;100.00
77881;BME280;67077;50.298;18.996;2023-10-13T02:31:28;97986.59;;;13.09;100.00
77881;BME280;67077;50.298;18.996;2023-10-13T02:33:56;97984.85;;;13.06;100.00
77881;BME280;67077;50.298;18.996;2023-10-13T02:36:24;97983.56;;;13.04;100.00
77881;BME280;67077;50.298;18.996;2023-10-13T02:39:04;97985.30;;;13.01;100.00
77881;BME280;67077;50.298;18.996;2023-10-13T02:41:35;97988.20;;;12.99;100.00
77881;BME280;67077;50.298;18.996;2023-10-13T02:44:07;97989.23;;;12.97;100.00
77881;BME280;67077;50.298;18.996;2023-10-13T02:46:38;97989.23;;;12.94;100.00
77881;BME280;67077;50.298;18.996;2023-10-13T02:49:08;97984.70;;;12.93;100.00
77881;BME280;67077;50.298;18.996;2023-10-13T02:51:39;97984.05;;;12.93;100.00
77881;BME280;67077;50.298;18.996;2023-10-13T02:54:09;97985.63;;;12.93;100.00
77881;BME280;67077;50.298;18.996;2023-10-13T02:56:46;97989.10;;;12.93;100.00
77881;BME280;67077;50.298;18.996;2023-10-13T02:59:25;97991.70;;;12.92;100.00
77881;BME280;67077;50.298;18.996;2023-10-13T03:02:07;97992.95;;;12.93;100.00
77881;BME280;67077;50.298;18.996;2023-10-13T03:04:47;97988.77;;;12.93;100.00
77881;BME280;67077;50.298;18.996;2023-10-13T03:07:16;97989.69;;;12.92;100.00
77881;BME280;67077;50.298;18.996;2023-10-13T03:09:50;97989.90;;;12.92;100.00
77881;BME280;67077;50.298;18.996;2023-10-13T03:12:19;97991.37;;;12.92;100.00
77881;BME280;67077;50.298;18.996;2023-10-13T03:14:47;97992.36;;;12.93;100.00
77881;BME280;67077;50.298;18.996;2023-10-13T03:17:15;97993.56;;;12.93;100.00
77881;BME280;67077;50.298;18.996;2023-10-13T03:19:45;97992.49;;;12.94;100.00
77881;BME280;67077;50.298;18.996;2023-10-13T03:22:24;97996.36;;;12.95;100.00
77881;BME280;67077;50.298;18.996;2023-10-13T03:24:59;97988.78;;;12.96;100.00
77881;BME280;67077;50.298;18.996;2023-10-13T03:27:35;97987.93;;;12.97;100.00
77881;BME280;67077;50.298;18.996;2023-10-13T03:30:19;97986.42;;;12.97;100.00
77881;BME280;67077;50.298;18.996;2023-10-13T03:32:48;97984.63;;;12.97;100.00
77881;BME280;67077;50.298;18.996;2023-10-13T03:35:21;97985.97;;;12.96;100.00
77881;BME280;67077;50.298;18.996;2023-10-13T03:37:52;97988.52;;;12.96;100.00
77881;BME280;67077;50.298;18.996;2023-10-13T03:40:21;97984.89;;;12.97;100.00
77881;BME280;67077;50.298;18.996;2023-10-13T03:42:50;97985.81;;;12.96;100.00
77881;BME280;67077;50.298;18.996;2023-10-13T03:45:42;97986.69;;;12.97;100.00
77881;BME280;67077;50.298;18.996;2023-10-13T03:48:12;97989.40;;;12.97;100.00
77881;BME280;67077;50.298;18.996;2023-10-13T03:50:54;97988.70;;;12.96;100.00
77881;BME280;67077;50.298;18.996;2023-10-13T03:53:31;97988.17;;;12.97;100.00
77881;BME280;67077;50.298;18.996;2023-10-13T03:56:05;97992.33;;;12.99;100.00
77881;BME280;67077;50.298;18.996;2023-10-13T03:58:37;97994.52;;;13.00;100.00
77881;BME280;67077;50.298;18.996;2023-10-13T04:01:14;97992.30;;;13.00;100.00
77881;BME280;67077;50.298;18.996;2023-10-13T04:03:45;97992.23;;;13.02;100.00
77881;BME280;67077;50.298;18.996;2023-10-13T04:06:24;97989.05;;;13.02;100.00
77881;BME280;67077;50.298;18.996;2023-10-13T04:14:30;97987.61;;;13.03;100.00
77881;BME280;67077;50.298;18.996;2023-10-13T04:17:17;97982.09;;;13.04;100.00
77881;BME280;67077;50.298;18.996;2023-10-13T04:19:55;97983.28;;;13.03;100.00
77881;BME280;67077;50.298;18.996;2023-10-13T04:22:36;97981.81;;;13.03;100.00
77881;BME280;67077;50.298;18.996;2023-10-13T04:25:14;97979.60;;;13.04;100.00
77881;BME280;67077;50.298;18.996;2023-10-13T04:28:02;97982.59;;;13.04;100.00
77881;BME280;67077;50.298;18.996;2023-10-13T04:30:44;97980.37;;;13.04;100.00
77881;BME280;67077;50.298;18.996;2023-10-13T04:36:16;97981.45;;;13.07;100.00
77881;BME280;67077;50.298;18.996;2023-10-13T04:38:51;97984.86;;;13.09;100.00
77881;BME280;67077;50.298;18.996;2023-10-13T04:41:36;97989.36;;;13.12;100.00
77881;BME280;67077;50.298;18.996;2023-10-13T04:44:15;97989.09;;;13.14;100.00
77881;BME280;67077;50.298;18.996;2023-10-13T04:46:58;97991.77;;;13.18;100.00
77881;BME280;67077;50.298;18.996;2023-10-13T04:49:34;97989.59;;;13.20;100.00
77881;BME280;67077;50.298;18.996;2023-10-13T04:52:04;97991.02;;;13.24;100.00
77881;BME280;67077;50.298;18.996;2023-10-13T04:54:38;97997.92;;;13.27;100.00
77881;BME280;67077;50.298;18.996;2023-10-13T04:57:17;98002.06;;;13.31;100.00
77881;BME280;67077;50.298;18.996;2023-10-13T05:00:05;98004.79;;;13.33;100.00
77881;BME280;67077;50.298;18.996;2023-10-13T05:02:41;98003.89;;;13.34;100.00
77881;BME280;67077;50.298;18.996;2023-10-13T05:05:11;98004.23;;;13.37;100.00
77881;BME280;67077;50.298;18.996;2023-10-13T05:07:46;98008.90;;;13.40;100.00
77881;BME280;67077;50.298;18.996;2023-10-13T05:10:34;98013.69;;;13.43;100.00
77881;BME280;67077;50.298;18.996;2023-10-13T05:13:21;98015.30;;;13.45;100.00
77881;BME280;67077;50.298;18.996;2023-10-13T05:16:08;98015.08;;;13.49;100.00
77881;BME280;67077;50.298;18.996;2023-10-13T05:18:54;98021.18;;;13.53;100.00
77881;BME280;67077;50.298;18.996;2023-10-13T05:21:43;98022.64;;;13.55;100.00
77881;BME280;67077;50.298;18.996;2023-10-13T05:24:30;98026.23;;;13.55;100.00
77881;BME280;67077;50.298;18.996;2023-10-13T05:27:17;98027.40;;;13.57;100.00
77881;BME280;67077;50.298;18.996;2023-10-13T05:30:04;98029.05;;;13.58;100.00
77881;BME280;67077;50.298;18.996;2023-10-13T05:32:50;98030.02;;;13.61;100.00
77881;BME280;67077;50.298;18.996;2023-10-13T05:35:37;98033.30;;;13.63;100.00
77881;BME280;67077;50.298;18.996;2023-10-13T05:38:23;98034.74;;;13.64;100.00
77881;BME280;67077;50.298;18.996;2023-10-13T05:41:10;98035.52;;;13.68;100.00
77881;BME280;67077;50.298;18.996;2023-10-13T05:43:57;98036.04;;;13.70;100.00
77881;BME280;67077;50.298;18.996;2023-10-13T05:46:43;98034.73;;;13.72;100.00
77881;BME280;67077;50.298;18.996;2023-10-13T05:49:17;98041.31;;;13.76;100.00
77881;BME280;67077;50.298;18.996;2023-10-13T05:51:46;98046.11;;;13.77;100.00
77881;BME280;67077;50.298;18.996;2023-10-13T05:54:34;98045.77;;;13.81;100.00
77881;BME280;67077;50.298;18.996;2023-10-13T05:57:31;98040.16;;;13.83;100.00
77881;BME280;67077;50.298;18.996;2023-10-13T06:00:18;98041.36;;;13.86;100.00
77881;BME280;67077;50.298;18.996;2023-10-13T06:03:04;98046.26;;;13.89;100.00
77881;BME280;67077;50.298;18.996;2023-10-13T06:05:50;98049.79;;;13.97;100.00
77881;BME280;67077;50.298;18.996;2023-10-13T06:08:37;98046.57;;;14.02;100.00
77881;BME280;67077;50.298;18.996;2023-10-13T06:11:24;98042.72;;;14.08;100.00
77881;BME280;67077;50.298;18.996;2023-10-13T06:14:11;98042.92;;;14.13;100.00
77881;BME280;67077;50.298;18.996;2023-10-13T06:16:57;98040.45;;;14.20;100.00
77881;BME280;67077;50.298;18.996;2023-10-13T06:19:44;98043.33;;;14.28;100.00
77881;BME280;67077;50.298;18.996;2023-10-13T06:22:30;98044.89;;;14.34;100.00
77881;BME280;67077;50.298;18.996;2023-10-13T06:25:17;98047.05;;;14.36;100.00
77881;BME280;67077;50.298;18.996;2023-10-13T06:28:04;98048.77;;;14.41;100.00
77881;BME280;67077;50.298;18.996;2023-10-13T06:30:57;98050.48;;;14.42;100.00
77881;BME280;67077;50.298;18.996;2023-10-13T06:33:25;98056.33;;;14.46;100.00
77881;BME280;67077;50.298;18.996;2023-10-13T06:35:57;98055.94;;;14.52;100.00
77881;BME280;67077;50.298;18.996;2023-10-13T06:38:25;98055.00;;;14.54;100.00
77881;BME280;67077;50.298;18.996;2023-10-13T06:40:58;98054.33;;;14.71;100.00
77881;BME280;67077;50.298;18.996;2023-10-13T06:43:26;98058.61;;;14.83;100.00
77881;BME280;67077;50.298;18.996;2023-10-13T06:46:02;98059.36;;;14.99;100.00
77881;BME280;67077;50.298;18.996;2023-10-13T06:48:31;98064.34;;;15.07;100.00
77881;BME280;67077;50.298;18.996;2023-10-13T06:51:02;98066.09;;;15.14;100.00
77881;BME280;67077;50.298;18.996;2023-10-13T06:53:53;98064.66;;;15.21;100.00
77881;BME280;67077;50.298;18.996;2023-10-13T06:56:24;98060.60;;;15.27;100.00
77881;BME280;67077;50.298;18.996;2023-10-13T06:58:56;98061.48;;;15.31;100.00
77881;BME280;67077;50.298;18.996;2023-10-13T07:01:27;98063.55;;;15.34;100.00
77881;BME280;67077;50.298;18.996;2023-10-13T07:03:56;98063.70;;;15.42;100.00
77881;BME280;67077;50.298;18.996;2023-10-13T07:06:29;98066.19;;;15.47;100.00
77881;BME280;67077;50.298;18.996;2023-10-13T07:08:59;98066.29;;;15.57;100.00
77881;BME280;67077;50.298;18.996;2023-10-13T07:11:32;98072.44;;;15.72;100.00
77881;BME280;67077;50.298;18.996;2023-10-13T07:14:06;98071.66;;;15.83;100.00
77881;BME280;67077;50.298;18.996;2023-10-13T07:16:56;98076.16;;;15.99;100.00
77881;BME280;67077;50.298;18.996;2023-10-13T07:19:27;98078.06;;;16.17;100.00
77881;BME280;67077;50.298;18.996;2023-10-13T07:21:58;98078.05;;;16.30;100.00
77881;BME280;67077;50.298;18.996;2023-10-13T07:24:27;98076.88;;;16.41;100.00
77881;BME280;67077;50.298;18.996;2023-10-13T07:26:58;98074.77;;;16.51;100.00
77881;BME280;67077;50.298;18.996;2023-10-13T07:29:32;98075.04;;;16.60;100.00
77881;BME280;67077;50.298;18.996;2023-10-13T07:32:03;98071.39;;;16.66;100.00
77881;BME280;67077;50.298;18.996;2023-10-13T07:34:31;98072.08;;;16.71;100.00
77881;BME280;67077;50.298;18.996;2023-10-13T07:36:59;98069.98;;;16.76;100.00
77881;BME280;67077;50.298;18.996;2023-10-13T07:39:31;98075.84;;;16.80;100.00
77881;BME280;67077;50.298;18.996;2023-10-13T07:42:02;98073.59;;;16.88;100.00
77881;BME280;67077;50.298;18.996;2023-10-13T07:44:49;98077.23;;;16.94;100.00
77881;BME280;67077;50.298;18.996;2023-10-13T07:47:16;98074.29;;;17.01;100.00
77881;BME280;67077;50.298;18.996;2023-10-13T07:49:46;98079.00;;;17.10;100.00
77881;BME280;67077;50.298;18.996;2023-10-13T07:52:20;98079.77;;;17.24;100.00
77881;BME280;67077;50.298;18.996;2023-10-13T07:54:50;98078.86;;;17.28;100.00
77881;BME280;67077;50.298;18.996;2023-10-13T07:57:38;98078.54;;;17.36;100.00
77881;BME280;67077;50.298;18.996;2023-10-13T08:00:22;98074.95;;;17.38;100.00
77881;BME280;67077;50.298;18.996;2023-10-13T08:03:06;98072.75;;;17.34;100.00
77881;BME280;67077;50.298;18.996;2023-10-13T08:05:57;98070.02;;;17.31;100.00
77881;BME280;67077;50.298;18.996;2023-10-13T08:08:27;98069.23;;;17.31;100.00
77881;BME280;67077;50.298;18.996;2023-10-13T08:11:09;98065.96;;;17.33;100.00
77881;BME280;67077;50.298;18.996;2023-10-13T08:13:58;98064.33;;;17.33;100.00
77881;BME280;67077;50.298;18.996;2023-10-13T08:16:58;98063.96;;;17.39;100.00
77881;BME280;67077;50.298;18.996;2023-10-13T08:19:28;98061.50;;;17.37;100.00
77881;BME280;67077;50.298;18.996;2023-10-13T08:22:01;98062.38;;;17.37;100.00
77881;BME280;67077;50.298;18.996;2023-10-13T08:24:49;98066.73;;;17.36;100.00
77881;BME280;67077;50.298;18.996;2023-10-13T08:27:21;98067.01;;;17.35;100.00
77881;BME280;67077;50.298;18.996;2023-10-13T08:30:08;98071.88;;;17.36;100.00
77881;BME280;67077;50.298;18.996;2023-10-13T08:32:56;98070.61;;;17.35;100.00
77881;BME280;67077;50.298;18.996;2023-10-13T08:35:27;98073.58;;;17.39;100.00
77881;BME280;67077;50.298;18.996;2023-10-13T08:37:58;98075.95;;;17.48;100.00
77881;BME280;67077;50.298;18.996;2023-10-13T08:40:29;98076.34;;;17.50;100.00
77881;BME280;67077;50.298;18.996;2023-10-13T08:43:11;98076.26;;;17.63;100.00
77881;BME280;67077;50.298;18.996;2023-10-13T08:45:43;98074.70;;;17.76;100.00
77881;BME280;67077;50.298;18.996;2023-10-13T08:48:11;98069.71;;;17.83;100.00
77881;BME280;67077;50.298;18.996;2023-10-13T08:50:47;98069.13;;;17.90;100.00
77881;BME280;67077;50.298;18.996;2023-10-13T08:53:26;98071.05;;;18.00;100.00
77881;BME280;67077;50.298;18.996;2023-10-13T08:58:47;98067.22;;;18.15;100.00
77881;BME280;67077;50.298;18.996;2023-10-13T09:01:34;98060.81;;;18.19;100.00
77881;BME280;67077;50.298;18.996;2023-10-13T09:04:18;98056.81;;;18.28;100.00
77881;BME280;67077;50.298;18.996;2023-10-13T09:07:04;98052.90;;;18.39;100.00
77881;BME280;67077;50.298;18.996;2023-10-13T09:12:27;98046.84;;;18.67;100.00
77881;BME280;67077;50.298;18.996;2023-10-13T09:15:10;98052.44;;;18.81;100.00
77881;BME280;67077;50.298;18.996;2023-10-13T09:17:50;98051.78;;;18.96;100.00
77881;BME280;67077;50.298;18.996;2023-10-13T09:20:29;98052.88;;;19.07;100.00
77881;BME280;67077;50.298;18.996;2023-10-13T09:23:14;98050.40;;;19.20;100.00
77881;BME280;67077;50.298;18.996;2023-10-13T09:25:53;98049.80;;;19.30;100.00
77881;BME280;67077;50.298;18.996;2023-10-13T09:28:29;98050.93;;;19.35;100.00
77881;BME280;67077;50.298;18.996;2023-10-13T09:30:59;98049.11;;;19.39;100.00
77881;BME280;67077;50.298;18.996;2023-10-13T09:33:30;98047.14;;;19.43;100.00
77881;BME280;67077;50.298;18.996;2023-10-13T09:36:01;98044.41;;;19.45;100.00
77881;BME280;67077;50.298;18.996;2023-10-13T09:38:36;98040.17;;;19.42;100.00
77881;BME280;67077;50.298;18.996;2023-10-13T09:41:08;98042.76;;;19.38;100.00
77881;BME280;67077;50.298;18.996;2023-10-13T09:43:55;98040.20;;;19.30;100.00
77881;BME280;67077;50.298;18.996;2023-10-13T09:46:27;98033.32;;;19.19;100.00
77881;BME280;67077;50.298;18.996;2023-10-13T09:49:08;98037.05;;;19.17;100.00
77881;BME280;67077;50.298;18.996;2023-10-13T09:51:42;98039.52;;;19.16;100.00
77881;BME280;67077;50.298;18.996;2023-10-13T09:54:30;98041.59;;;19.19;100.00
77881;BME280;67077;50.298;18.996;2023-10-13T09:57:08;98040.76;;;19.22;100.00
77881;BME280;67077;50.298;18.996;2023-10-13T09:59:50;98038.98;;;19.33;100.00
77881;BME280;67077;50.298;18.996;2023-10-13T10:02:20;98032.49;;;19.46;100.00
77881;BME280;67077;50.298;18.996;2023-10-13T10:04:56;98030.67;;;19.58;100.00
77881;BME280;67077;50.298;18.996;2023-10-13T10:07:40;98029.52;;;19.67;100.00
77881;BME280;67077;50.298;18.996;2023-10-13T10:10:12;98023.94;;;19.76;100.00
77881;BME280;67077;50.298;18.996;2023-10-13T10:12:52;98018.73;;;19.85;100.00
77881;BME280;67077;50.298;18.996;2023-10-13T10:15:35;98022.11;;;19.90;100.00
77881;BME280;67077;50.298;18.996;2023-10-13T10:18:22;98015.77;;;19.98;100.00
77881;BME280;67077;50.298;18.996;2023-10-13T10:21:03;98015.59;;;20.02;100.00
77881;BME280;67077;50.298;18.996;2023-10-13T10:23:35;98010.63;;;19.98;100.00
77881;BME280;67077;50.298;18.996;2023-10-13T10:26:13;98012.02;;;19.93;100.00
77881;BME280;67077;50.298;18.996;2023-10-13T10:28:43;98006.75;;;19.90;100.00
77881;BME280;67077;50.298;18.996;2023-10-13T10:31:15;98003.96;;;19.87;100.00
77881;BME280;67077;50.298;18.996;2023-10-13T10:33:45;97999.07;;;19.90;100.00
77881;BME280;67077;50.298;18.996;2023-10-13T10:36:29;97988.75;;;19.95;100.00
77881;BME280;67077;50.298;18.996;2023-10-13T10:39:00;97987.27;;;20.04;100.00
77881;BME280;67077;50.298;18.996;2023-10-13T10:41:36;97989.37;;;20.11;100.00
77881;BME280;67077;50.298;18.996;2023-10-13T10:44:14;97990.10;;;20.16;100.00
77881;BME280;67077;50.298;18.996;2023-10-13T10:46:52;97984.80;;;20.19;100.00
77881;BME280;67077;50.298;18.996;2023-10-13T10:49:28;97982.30;;;20.17;100.00
77881;BME280;67077;50.298;18.996;2023-10-13T10:51:59;97977.90;;;20.18;100.00
77881;BME280;67077;50.298;18.996;2023-10-13T10:54:32;97978.98;;;20.20;100.00
77881;BME280;67077;50.298;18.996;2023-10-13T10:57:01;97976.45;;;20.24;100.00
77881;BME280;67077;50.298;18.996;2023-10-13T10:59:39;97974.51;;;20.27;100.00
77881;BME280;67077;50.298;18.996;2023-10-13T11:02:07;97972.75;;;20.26;100.00
77881;BME280;67077;50.298;18.996;2023-10-13T11:04:36;97975.67;;;20.26;100.00
77881;BME280;67077;50.298;18.996;2023-10-13T11:07:22;97971.69;;;20.29;100.00
77881;BME280;67077;50.298;18.996;2023-10-13T11:09:51;97967.77;;;20.33;100.00
77881;BME280;67077;50.298;18.996;2023-10-13T11:12:20;97969.61;;;20.38;100.00
77881;BME280;67077;50.298;18.996;2023-10-13T11:15:03;97972.50;;;20.41;100.00
77881;BME280;67077;50.298;18.996;2023-10-13T11:17:37;97970.33;;;20.48;100.00
77881;BME280;67077;50.298;18.996;2023-10-13T11:20:17;97969.67;;;20.56;100.00
77881;BME280;67077;50.298;18.996;2023-10-13T11:22:47;97966.84;;;20.58;100.00
77881;BME280;67077;50.298;18.996;2023-10-13T11:25:25;97962.79;;;20.57;100.00
77881;BME280;67077;50.298;18.996;2023-10-13T11:28:16;97958.98;;;20.59;100.00
77881;BME280;67077;50.298;18.996;2023-10-13T11:30:57;97951.83;;;20.60;100.00
77881;BME280;67077;50.298;18.996;2023-10-13T11:33:43;97947.60;;;20.61;100.00
77881;BME280;67077;50.298;18.996;2023-10-13T11:36:14;97946.59;;;20.58;100.00
77881;BME280;67077;50.298;18.996;2023-10-13T11:38:47;97947.27;;;20.55;100.00
77881;BME280;67077;50.298;18.996;2023-10-13T11:41:15;97955.23;;;20.52;100.00
77881;BME280;67077;50.298;18.996;2023-10-13T11:43:50;97949.71;;;20.44;100.00
77881;BME280;67077;50.298;18.996;2023-10-13T11:46:24;97947.69;;;20.40;100.00
77881;BME280;67077;50.298;18.996;2023-10-13T11:49:05;97936.66;;;20.39;100.00
77881;BME280;67077;50.298;18.996;2023-10-13T11:51:48;97938.73;;;20.41;100.00
77881;BME280;67077;50.298;18.996;2023-10-13T11:54:18;97935.31;;;20.45;100.00
77881;BME280;67077;50.298;18.996;2023-10-13T11:56:48;97934.23;;;20.51;100.00
77881;BME280;67077;50.298;18.996;2023-10-13T11:59:16;97932.34;;;20.60;100.00
77881;BME280;67077;50.298;18.996;2023-10-13T12:01:52;97932.70;;;20.68;100.00
77881;BME280;67077;50.298;18.996;2023-10-13T12:04:39;97930.88;;;20.75;100.00
77881;BME280;67077;50.298;18.996;2023-10-13T12:07:23;97929.78;;;20.81;100.00
77881;BME280;67077;50.298;18.996;2023-10-13T12:10:14;97929.83;;;20.84;100.00
77881;BME280;67077;50.298;18.996;2023-10-13T12:13:01;97926.45;;;20.86;100.00
77881;BME280;67077;50.298;18.996;2023-10-13T12:15:35;97925.89;;;20.87;100.00
77881;BME280;67077;50.298;18.996;2023-10-13T12:18:17;97925.83;;;20.87;100.00
77881;BME280;67077;50.298;18.996;2023-10-13T12:20:47;97927.23;;;20.90;100.00
77881;BME280;67077;50.298;18.996;2023-10-13T12:23:17;97923.61;;;20.93;100.00
77881;BME280;67077;50.298;18.996;2023-10-13T12:25:47;97918.56;;;20.99;100.00
77881;BME280;67077;50.298;18.996;2023-10-13T12:28:28;97915.13;;;21.06;100.00
77881;BME280;67077;50.298;18.996;2023-10-13T12:30:56;97914.45;;;21.09;100.00
77881;BME280;67077;50.298;18.996;2023-10-13T12:33:33;97910.27;;;21.08;100.00
77881;BME280;67077;50.298;18.996;2023-10-13T12:36:04;97912.44;;;21.11;100.00
77881;BME280;67077;50.298;18.996;2023-10-13T12:38:54;97909.76;;;21.10;100.00
77881;BME280;67077;50.298;18.996;2023-10-13T12:41:34;97909.35;;;21.07;100.00
77881;BME280;67077;50.298;18.996;2023-10-13T12:44:21;97908.24;;;21.12;100.00
77881;BME280;67077;50.298;18.996;2023-10-13T12:47:07;97898.50;;;21.19;100.00
77881;BME280;67077;50.298;18.996;2023-10-13T12:49:53;97898.55;;;21.27;100.00
77881;BME280;67077;50.298;18.996;2023-10-13T12:52:25;97897.38;;;21.34;100.00
77881;BME280;67077;50.298;18.996;2023-10-13T12:54:53;97900.59;;;21.40;100.00
77881;BME280;67077;50.298;18.996;2023-10-13T12:57:25;97899.41;;;21.41;100.00
77881;BME280;67077;50.298;18.996;2023-10-13T12:59:54;97902.12;;;21.37;100.00
77881;BME280;67077;50.298;18.996;2023-10-13T13:02:28;97897.85;;;21.30;100.00
77881;BME280;67077;50.298;18.996;2023-10-13T13:04:57;97898.41;;;21.24;100.00
77881;BME280;67077;50.298;18.996;2023-10-13T13:07:30;97893.54;;;21.15;100.00
77881;BME280;67077;50.298;18.996;2023-10-13T13:09:58;97886.06;;;21.06;100.00
77881;BME280;67077;50.298;18.996;2023-10-13T13:12:27;97880.71;;;20.98;100.00
77881;BME280;67077;50.298;18.996;2023-10-13T13:14:58;97879.90;;;20.91;100.00
77881;BME280;67077;50.298;18.996;2023-10-13T13:17:28;97884.96;;;20.86;100.00
77881;BME280;67077;50.298;18.996;2023-10-13T13:19:57;97887.48;;;20.81;100.00
77881;BME280;67077;50.298;18.996;2023-10-13T13:22:25;97884.10;;;20.73;100.00
77881;BME280;67077;50.298;18.996;2023-10-13T13:24:53;97876.36;;;20.66;100.00
77881;BME280;67077;50.298;18.996;2023-10-13T13:27:20;97874.39;;;20.59;100.00
77881;BME280;67077;50.298;18.996;2023-10-13T13:29:50;97869.77;;;20.55;100.00
77881;BME280;67077;50.298;18.996;2023-10-13T13:32:17;97868.75;;;20.54;100.00
77881;BME280;67077;50.298;18.996;2023-10-13T13:34:51;97866.46;;;20.57;100.00
77881;BME280;67077;50.298;18.996;2023-10-13T13:37:26;97862.02;;;20.62;100.00
77881;BME280;67077;50.298;18.996;2023-10-13T13:39:55;97853.90;;;20.65;100.00